Rusk, TX

4:54 PM CST on March 05, 2015 (GMT -0600)
Cherokee County | Change Station
CLOSE
Current Station
Airport
Location: Jacksonville,
Elevation: 676 ft
Nearby Weather Stations

Elev 676 ft 31.87 °N, 95.22 °W | Updated 19 minutes ago

Clear
Clear
42 °F
Feels Like 36 °F
N
10
Wind Variable Wind from North
Gusts 18 mph

Today
High -- | Low -- °F
--% Chance of Precip.
Yesterday
High -- | Low -- °F
Precip. -- in
6:43 AM 6:21 PM
Full, 100% visible
Pressure 30.51 in
Visibility 10.0 miles
Clouds Clear
Windchill 36 °F
Dew Point 21 °F
Humidity 42%
Rainfall 0.00 in
Snow Depth Not available.
UV 2 out of 12
Pollen 1.00 out of 12
Air Quality Not available.
Flu Activity Not available.
METAR KJSO 052235Z AUTO 01009G16KT 10SM CLR 05/M06 A3051 RMK AO2 T00571063

More Conditions Fewer Conditions

Pressure 30.51 in
Visibility 10.0 miles
Clouds Clear
Windchill 36 °F
Dew Point 21 °F
Humidity 42%
Rainfall 0.00 in
Snow Depth Not available.
UV 2 out of 12
Pollen 1.00 out of 12
Air Quality Not available.
Flu Activity Not available.
METAR KJSO 052235Z AUTO 01009G16KT 10SM CLR 05/M06 A3051 RMK AO2 T00571063

More Conditions Fewer Conditions

10-Day Weather Forecast

Almanac

Astronomy

Mar. 05, 2015 Rise Set
Actual Time
Civil Twilight
Nautical Twilight
Astronomical Twilight
Moon
Length of Visible Light
Length of Day
Tomorrow will be .
, % of the Moon is Illuminated

Today's Extremes

State Highs State Lows

Community

WunderPhotos

Upload Photos

1,803,036 photos uploaded!

WunderBlogs® & News

Nearby

Air Quality

  Air Quality AQ Index Pollutant
Not available.

Snow Depth

Station Depth Elevation

Earthquake Activity

City Distance Mag. Time & Date
Minimum magnitude displayed is 2.5.

Coastal Water Temperatures

Place Temperature

Nearby Weather Stations